createdAt,value
2023-04-19T00:02:06.624Z,12.41
2023-04-19T00:04:33.673Z,12.40
2023-04-19T00:07:00.675Z,12.38
2023-04-19T00:09:27.426Z,12.37
2023-04-19T00:11:54.247Z,12.36
2023-04-19T00:14:21.091Z,12.37
2023-04-19T00:16:47.913Z,12.34
2023-04-19T00:19:14.771Z,12.31
2023-04-19T00:21:41.606Z,12.36
2023-04-19T00:24:08.547Z,12.35
2023-04-19T00:26:35.468Z,12.37
2023-04-19T00:29:02.306Z,12.19
2023-04-19T00:31:29.255Z,12.27
2023-04-19T00:33:57.029Z,12.29
2023-04-19T00:36:23.932Z,12.24
2023-04-19T00:38:50.712Z,12.30
2023-04-19T00:41:17.515Z,12.32
2023-04-19T00:43:44.404Z,12.33
2023-04-19T00:46:11.505Z,12.33
2023-04-19T00:48:38.528Z,12.30
2023-04-19T00:51:05.584Z,12.31
2023-04-19T00:53:32.700Z,12.32
2023-04-19T00:56:04.646Z,12.27
2023-04-19T00:58:32.678Z,12.27
2023-04-19T01:01:00.354Z,12.26
2023-04-19T01:03:29.590Z,12.25
2023-04-19T01:05:57.284Z,12.26
2023-04-19T01:08:24.524Z,12.22
2023-04-19T01:10:51.338Z,12.21
2023-04-19T01:13:18.262Z,12.23
2023-04-19T01:15:45.123Z,12.24
2023-04-19T01:18:12.240Z,12.24
2023-04-19T01:20:39.061Z,12.24
2023-04-19T01:23:05.852Z,12.26
2023-04-19T01:25:32.701Z,12.25
2023-04-19T01:27:59.517Z,12.20
2023-04-19T01:30:26.340Z,12.23
2023-04-19T01:32:53.180Z,12.11
2023-04-19T01:35:21.361Z,12.14
2023-04-19T01:37:48.236Z,12.18
2023-04-19T01:40:15.714Z,12.18
2023-04-19T01:42:42.532Z,12.14
2023-04-19T01:45:10.179Z,12.17
2023-04-19T01:47:37.121Z,12.19
2023-04-19T01:50:04.289Z,12.14
2023-04-19T01:52:31.077Z,12.16
2023-04-19T01:54:57.889Z,12.14
2023-04-19T01:57:24.730Z,12.15
2023-04-19T01:59:53.410Z,12.15
2023-04-19T02:02:20.558Z,12.16
2023-04-19T02:04:47.493Z,12.15
2023-04-19T02:07:14.346Z,12.13
2023-04-19T02:09:41.252Z,12.16
2023-04-19T02:12:08.207Z,12.10
2023-04-19T02:14:35.770Z,12.13
2023-04-19T02:17:02.659Z,12.10
2023-04-19T02:19:29.536Z,12.13
2023-04-19T02:21:57.800Z,12.12
2023-04-19T02:24:25.244Z,12.10
2023-04-19T02:26:52.319Z,12.12
2023-04-19T02:29:19.281Z,12.11
2023-04-19T02:31:46.539Z,12.11
2023-04-19T02:34:13.826Z,12.10
2023-04-19T02:36:40.889Z,12.10
2023-04-19T02:39:07.733Z,12.08
2023-04-19T02:41:34.568Z,12.07
2023-04-19T02:44:01.399Z,12.07
2023-04-19T02:46:28.297Z,12.08
2023-04-19T02:48:55.242Z,12.06
2023-04-19T02:51:22.090Z,12.07
2023-04-19T02:53:48.917Z,12.06
2023-04-19T02:56:16.476Z,12.04
2023-04-19T02:58:43.332Z,12.04
2023-04-19T03:01:10.547Z,12.03
2023-04-19T03:03:37.560Z,12.04
2023-04-19T03:06:04.707Z,12.05
2023-04-19T03:08:31.653Z,11.85
2023-04-19T03:10:58.813Z,11.93
2023-04-19T03:13:25.738Z,11.94
2023-04-19T03:15:52.950Z,11.87
2023-04-19T03:18:19.838Z,11.89
2023-04-19T03:20:46.677Z,11.92
2023-04-19T03:23:13.488Z,11.93
2023-04-19T03:25:40.560Z,11.90
2023-04-19T03:28:07.366Z,11.92
2023-04-19T03:30:34.182Z,11.93
2023-04-19T03:33:01.422Z,11.93
2023-04-19T03:35:29.355Z,11.88
2023-04-19T03:37:56.154Z,11.93
2023-04-19T03:40:22.970Z,11.93
2023-04-19T03:42:49.795Z,11.89
2023-04-19T03:45:16.697Z,11.87
2023-04-19T03:47:43.562Z,11.89
2023-04-19T03:50:10.697Z,11.82
2023-04-19T03:52:37.553Z,11.85
2023-04-19T03:55:05.036Z,11.86
2023-04-19T03:57:32.788Z,11.84
2023-04-19T04:00:00.488Z,11.79
2023-04-19T04:02:27.469Z,11.82
2023-04-19T04:04:55.533Z,11.81
2023-04-19T04:07:23.252Z,11.77
2023-04-19T04:09:50.684Z,11.74
2023-04-19T04:12:17.492Z,11.79
2023-04-19T04:14:44.649Z,11.76
2023-04-19T04:17:11.484Z,11.67
2023-04-19T04:19:38.316Z,11.68
2023-04-19T04:22:06.058Z,11.64
2023-04-19T04:24:41.389Z,11.64
2023-04-19T04:27:10.171Z,11.61
2023-04-19T04:29:37.990Z,11.60
2023-04-19T04:32:10.501Z,11.55
2023-04-19T04:34:38.582Z,11.49
2023-04-19T04:37:05.741Z,11.52
2023-04-19T04:39:35.102Z,11.46
2023-04-19T04:42:01.914Z,11.44
2023-04-19T04:44:29.012Z,11.41
2023-04-19T04:46:55.831Z,11.40
2023-04-19T04:49:22.691Z,11.42
2023-04-19T04:51:49.532Z,11.39
2023-04-19T04:54:16.511Z,11.37
2023-04-19T04:56:43.471Z,11.32
2023-04-19T04:59:11.318Z,11.31
2023-04-19T05:01:38.237Z,11.31
2023-04-19T05:04:05.564Z,11.27
2023-04-19T05:06:32.377Z,11.28
2023-04-19T05:08:59.241Z,11.26
2023-04-19T05:11:27.467Z,11.18
2023-04-19T05:13:54.291Z,11.19
2023-04-19T05:16:21.434Z,11.20
2023-04-19T05:18:48.312Z,11.19
2023-04-19T05:21:15.701Z,11.16
2023-04-19T05:23:42.509Z,11.17
2023-04-19T05:26:12.676Z,11.11
2023-04-19T05:28:40.486Z,11.13
2023-04-19T05:31:08.896Z,11.13
2023-04-19T05:33:35.734Z,11.17
2023-04-19T05:36:02.580Z,11.19
2023-04-19T05:38:29.378Z,11.20
2023-04-19T05:40:56.320Z,11.07
2023-04-19T05:43:23.125Z,11.02
2023-04-19T05:45:50.027Z,11.12
2023-04-19T05:48:16.880Z,11.19
2023-04-19T05:50:43.755Z,11.15
2023-04-19T05:53:10.558Z,11.15
2023-04-19T05:55:37.368Z,11.20
2023-04-19T05:58:04.312Z,11.21
2023-04-19T06:00:31.209Z,11.21
2023-04-19T06:02:58.160Z,11.21
2023-04-19T06:05:25.597Z,11.24
2023-04-19T06:10:29.053Z,11.25
2023-04-19T06:13:01.168Z,11.26
2023-04-19T06:15:28.098Z,11.20
2023-04-19T06:17:54.961Z,11.19
2023-04-19T06:20:22.109Z,11.23
2023-04-19T06:22:49.343Z,11.25
2023-04-19T06:25:16.178Z,11.27
2023-04-19T06:27:43.063Z,11.29
2023-04-19T06:30:10.179Z,11.31
2023-04-19T06:32:37.097Z,11.25
2023-04-19T06:35:04.540Z,11.31
2023-04-19T06:37:33.655Z,11.26
2023-04-19T06:40:00.840Z,11.30
2023-04-19T06:42:27.649Z,11.30
2023-04-19T06:44:57.130Z,11.25
2023-04-19T06:47:24.129Z,11.31
2023-04-19T06:49:51.073Z,11.35
2023-04-19T06:52:17.926Z,11.39
2023-04-19T06:54:51.742Z,11.41
2023-04-19T06:57:18.771Z,11.43
2023-04-19T06:59:45.803Z,11.44
2023-04-19T07:02:12.691Z,11.45
2023-04-19T07:04:39.731Z,11.43
2023-04-19T07:07:06.696Z,11.44
2023-04-19T07:09:33.538Z,11.49
2023-04-19T07:12:01.654Z,11.52
2023-04-19T07:14:28.518Z,11.50
2023-04-19T07:16:55.787Z,11.49
2023-04-19T07:19:22.829Z,11.49
2023-04-19T07:21:51.842Z,11.46
2023-04-19T07:24:18.744Z,11.51
2023-04-19T07:26:45.610Z,11.54
2023-04-19T07:29:15.528Z,11.51
2023-04-19T07:31:42.408Z,11.55
2023-04-19T07:34:09.262Z,11.50
2023-04-19T07:36:37.080Z,11.46
2023-04-19T07:39:04.872Z,11.54
2023-04-19T07:41:35.991Z,11.53
2023-04-19T07:44:03.155Z,11.62
2023-04-19T07:46:30.151Z,11.60
2023-04-19T07:48:57.017Z,11.56
2023-04-19T07:51:24.682Z,11.55
2023-04-19T07:53:51.584Z,11.57
2023-04-19T07:56:20.014Z,11.61
2023-04-19T07:58:53.670Z,11.65
2023-04-19T08:01:27.622Z,11.74
2023-04-19T08:03:54.623Z,11.72
2023-04-19T08:06:21.792Z,11.68
2023-04-19T08:08:50.129Z,11.72
2023-04-19T08:11:17.050Z,11.73
2023-04-19T08:13:55.128Z,11.75
2023-04-19T08:19:00.922Z,11.76
2023-04-19T08:21:34.636Z,11.77
2023-04-19T08:24:07.821Z,11.83
2023-04-19T08:26:34.901Z,11.78
2023-04-19T08:29:01.829Z,11.86
2023-04-19T08:31:28.672Z,11.85
2023-04-19T08:33:55.611Z,11.83
2023-04-19T08:36:35.499Z,11.77
2023-04-19T08:39:12.568Z,11.77
2023-04-19T08:41:48.174Z,11.79
2023-04-19T08:44:32.533Z,11.89
2023-04-19T08:47:03.493Z,11.91
2023-04-19T08:49:31.693Z,11.96
2023-04-19T08:51:58.903Z,11.95
2023-04-19T08:54:26.417Z,11.93
2023-04-19T08:56:54.499Z,11.96
2023-04-19T08:59:21.478Z,11.97
2023-04-19T09:01:48.492Z,12.00
2023-04-19T09:06:45.385Z,11.94
2023-04-19T09:11:51.694Z,11.96
2023-04-19T09:14:21.096Z,12.03
2023-04-19T09:16:48.385Z,12.09
2023-04-19T09:19:23.973Z,12.02
2023-04-19T09:21:53.559Z,12.06
2023-04-19T09:25:04.497Z,12.11
2023-04-19T09:27:34.708Z,12.11
2023-04-19T09:30:03.809Z,12.14
2023-04-19T09:32:48.647Z,12.09
2023-04-19T09:35:16.064Z,12.08
2023-04-19T09:40:23.562Z,12.08
2023-04-19T09:45:29.717Z,12.31
2023-04-19T09:48:08.412Z,12.27
2023-04-19T09:50:46.642Z,12.23
2023-04-19T09:53:22.146Z,12.26
2023-04-19T09:56:00.545Z,12.39
2023-04-19T09:58:37.590Z,12.53
2023-04-19T10:01:15.658Z,12.48
2023-04-19T10:03:46.467Z,12.57
2023-04-19T10:08:51.055Z,12.53
2023-04-19T10:11:21.988Z,12.58
2023-04-19T10:13:50.592Z,12.67
2023-04-19T10:16:19.931Z,12.65
2023-04-19T10:18:50.099Z,12.71
2023-04-19T10:21:17.660Z,12.90
2023-04-19T10:23:44.759Z,12.84
2023-04-19T10:26:11.608Z,12.70
2023-04-19T10:28:38.456Z,12.69
2023-04-19T10:31:05.871Z,12.69
2023-04-19T10:33:37.827Z,12.60
2023-04-19T10:36:09.048Z,12.59
2023-04-19T10:38:49.426Z,12.59
2023-04-19T10:41:20.135Z,12.59
2023-04-19T10:43:48.437Z,12.61
2023-04-19T10:46:36.336Z,12.58
2023-04-19T10:49:05.747Z,12.59
2023-04-19T10:51:43.287Z,12.65
2023-04-19T10:54:32.471Z,12.68
2023-04-19T10:57:02.667Z,12.91
2023-04-19T10:59:31.907Z,12.95
2023-04-19T11:02:01.332Z,13.09
2023-04-19T11:04:31.234Z,13.01
2023-04-19T11:07:07.309Z,12.86
2023-04-19T11:09:36.321Z,12.87
2023-04-19T11:12:12.641Z,12.77
2023-04-19T11:14:59.696Z,12.84
2023-04-19T11:17:32.086Z,12.77
2023-04-19T11:20:07.061Z,12.73
2023-04-19T11:22:44.921Z,12.67
2023-04-19T11:25:14.064Z,12.77
2023-04-19T11:27:43.041Z,12.93
2023-04-19T11:30:16.839Z,12.92
2023-04-19T11:35:32.817Z,13.04
2023-04-19T11:38:00.114Z,12.97
2023-04-19T11:40:27.398Z,13.02
2023-04-19T11:43:02.492Z,13.02
2023-04-19T11:45:33.117Z,12.92
2023-04-19T11:48:05.255Z,12.92
2023-04-19T11:50:42.669Z,12.90
2023-04-19T11:53:20.871Z,12.85
2023-04-19T11:55:58.631Z,12.87
2023-04-19T11:58:39.767Z,12.92
2023-04-19T12:01:28.930Z,12.90
2023-04-19T12:03:57.639Z,12.94
2023-04-19T12:06:28.192Z,12.96
2023-04-19T12:08:56.775Z,12.95
2023-04-19T12:11:46.357Z,12.92
2023-04-19T12:14:15.917Z,12.86
2023-04-19T12:16:44.860Z,12.91
2023-04-19T12:19:18.439Z,12.85
2023-04-19T12:21:47.005Z,12.80
2023-04-19T12:24:16.703Z,12.78
2023-04-19T12:26:56.764Z,12.75
2023-04-19T12:29:23.617Z,12.72
2023-04-19T12:31:51.113Z,12.74
2023-04-19T12:34:17.990Z,12.70
2023-04-19T12:36:44.868Z,12.64
2023-04-19T12:39:11.976Z,12.61
2023-04-19T12:41:38.810Z,12.65
2023-04-19T12:44:05.776Z,12.66
2023-04-19T12:46:32.695Z,12.69
2023-04-19T12:48:59.617Z,12.64
2023-04-19T12:51:27.976Z,12.60
2023-04-19T12:53:54.835Z,12.57
2023-04-19T12:56:21.737Z,12.53
2023-04-19T12:58:48.624Z,12.55
2023-04-19T13:01:15.575Z,12.50
2023-04-19T13:03:42.652Z,12.50
2023-04-19T13:06:11.082Z,12.46
2023-04-19T13:08:44.584Z,12.38
2023-04-19T13:11:14.022Z,12.33
2023-04-19T13:13:40.911Z,12.37
2023-04-19T13:16:08.255Z,12.38
2023-04-19T13:18:35.508Z,12.35
2023-04-19T13:21:02.435Z,12.30
2023-04-19T13:23:29.494Z,12.27
2023-04-19T13:25:56.307Z,12.30
2023-04-19T13:28:23.156Z,12.31
2023-04-19T13:30:50.069Z,12.29
2023-04-19T13:33:16.980Z,12.32
2023-04-19T13:35:44.996Z,12.35
2023-04-19T13:38:11.898Z,12.36
2023-04-19T13:40:38.767Z,12.36
2023-04-19T13:43:05.613Z,12.37
2023-04-19T13:45:32.434Z,12.33
2023-04-19T13:47:59.286Z,12.38
2023-04-19T13:50:26.125Z,12.37
2023-04-19T13:52:52.949Z,12.35
2023-04-19T13:55:19.787Z,12.32
2023-04-19T13:57:46.780Z,12.28
2023-04-19T14:00:14.277Z,12.35
2023-04-19T14:02:41.269Z,12.26
2023-04-19T14:05:09.140Z,12.23
2023-04-19T14:07:37.581Z,12.29
2023-04-19T14:10:04.773Z,12.30
2023-04-19T14:12:31.675Z,12.24
2023-04-19T14:14:58.933Z,12.07
2023-04-19T14:17:26.280Z,12.16
2023-04-19T14:19:53.349Z,12.24
2023-04-19T14:22:20.270Z,11.97
2023-04-19T14:24:47.287Z,11.96
2023-04-19T14:27:14.142Z,12.00
2023-04-19T14:29:40.980Z,12.11
2023-04-19T14:32:24.304Z,12.15
2023-04-19T14:34:53.417Z,12.14
2023-04-19T14:37:23.488Z,12.19
2023-04-19T14:39:50.533Z,12.16
2023-04-19T14:42:18.050Z,12.10
2023-04-19T14:44:46.425Z,12.08
2023-04-19T14:47:14.457Z,12.09
2023-04-19T14:49:41.917Z,12.02
2023-04-19T14:52:08.982Z,11.98
2023-04-19T14:54:35.899Z,11.85
2023-04-19T14:57:03.087Z,11.93
2023-04-19T14:59:30.105Z,11.86
2023-04-19T15:01:57.112Z,11.94
2023-04-19T15:04:24.152Z,11.96
2023-04-19T15:06:51.124Z,11.96
2023-04-19T15:09:18.342Z,12.00
2023-04-19T15:11:45.746Z,12.01
2023-04-19T15:14:12.663Z,12.03
2023-04-19T15:16:39.548Z,12.04
2023-04-19T15:19:07.528Z,12.08
2023-04-19T15:21:34.777Z,11.99
2023-04-19T15:24:01.732Z,11.97
2023-04-19T15:26:28.588Z,11.79
2023-04-19T15:28:56.390Z,11.82
2023-04-19T15:31:25.010Z,11.88
2023-04-19T15:33:52.492Z,11.93
2023-04-19T15:36:19.338Z,11.90
2023-04-19T15:38:46.166Z,12.01
2023-04-19T15:41:13.092Z,11.90
2023-04-19T15:43:39.960Z,11.83
2023-04-19T15:46:06.776Z,11.89
2023-04-19T15:48:33.784Z,11.91
2023-04-19T15:51:01.846Z,11.90
2023-04-19T15:53:28.851Z,11.93
2023-04-19T15:55:56.661Z,11.90
2023-04-19T15:58:24.148Z,11.96
2023-04-19T16:00:51.275Z,11.82
2023-04-19T16:03:18.262Z,11.78
2023-04-19T16:05:45.150Z,11.81
2023-04-19T16:08:17.174Z,11.90
2023-04-19T16:10:48.639Z,11.97
2023-04-19T16:13:16.217Z,11.92
2023-04-19T16:15:44.737Z,11.82
2023-04-19T16:18:13.134Z,11.87
2023-04-19T16:20:40.706Z,11.80
2023-04-19T16:23:08.093Z,11.79
2023-04-19T16:25:35.008Z,11.76
2023-04-19T16:28:02.127Z,11.77
2023-04-19T16:30:28.991Z,11.82
2023-04-19T16:32:57.094Z,11.88
2023-04-19T16:35:25.203Z,11.76
2023-04-19T16:37:55.144Z,11.83
2023-04-19T16:40:23.665Z,11.92
2023-04-19T16:42:50.544Z,11.83
2023-04-19T16:45:19.889Z,11.61
2023-04-19T16:47:48.080Z,11.68
2023-04-19T16:50:15.300Z,11.59
2023-04-19T16:52:42.174Z,11.64
2023-04-19T16:55:09.706Z,11.60
2023-04-19T16:57:36.829Z,11.60
2023-04-19T17:00:06.000Z,11.56
2023-04-19T17:02:33.314Z,11.56
2023-04-19T17:05:00.479Z,11.66
2023-04-19T17:07:27.521Z,11.61
2023-04-19T17:09:55.291Z,11.58
2023-04-19T17:12:22.296Z,11.65
2023-04-19T17:14:49.132Z,11.65
2023-04-19T17:17:18.100Z,11.73
2023-04-19T17:19:44.958Z,11.70
2023-04-19T17:22:11.955Z,11.59
2023-04-19T17:24:39.222Z,11.68
2023-04-19T17:27:06.380Z,11.70
2023-04-19T17:29:33.202Z,11.77
2023-04-19T17:32:00.946Z,11.82
2023-04-19T17:34:27.854Z,11.81
2023-04-19T17:36:54.736Z,11.87
2023-04-19T17:39:21.547Z,11.82
2023-04-19T17:41:48.370Z,11.81
2023-04-19T17:44:15.213Z,11.86
2023-04-19T17:46:42.208Z,11.90
2023-04-19T17:49:09.357Z,11.92
2023-04-19T17:51:36.222Z,11.93
2023-04-19T17:54:03.180Z,11.84
2023-04-19T17:56:31.228Z,11.93
2023-04-19T17:59:00.656Z,11.96
2023-04-19T18:01:27.494Z,11.95
2023-04-19T18:03:54.515Z,11.97
2023-04-19T18:06:21.991Z,11.97
2023-04-19T18:08:48.799Z,11.95
2023-04-19T18:11:18.049Z,11.96
2023-04-19T18:13:45.476Z,11.99
2023-04-19T18:16:13.488Z,12.00
2023-04-19T18:18:40.372Z,12.00
2023-04-19T18:21:08.279Z,11.98
2023-04-19T18:23:35.260Z,11.95
2023-04-19T18:26:03.939Z,11.95
2023-04-19T18:28:30.848Z,11.95
2023-04-19T18:30:57.836Z,11.96
2023-04-19T18:33:24.810Z,11.92
2023-04-19T18:35:53.869Z,11.92
2023-04-19T18:38:20.992Z,11.91
2023-04-19T18:40:48.119Z,11.89
2023-04-19T18:43:15.672Z,11.87
2023-04-19T18:45:42.714Z,11.81
2023-04-19T18:48:09.711Z,11.74
2023-04-19T18:50:38.097Z,11.73
2023-04-19T18:53:04.913Z,11.67
2023-04-19T18:55:31.823Z,11.69
2023-04-19T18:58:01.191Z,11.65
2023-04-19T19:00:28.429Z,11.64
2023-04-19T19:02:57.332Z,11.60
2023-04-19T19:05:24.539Z,11.53
2023-04-19T19:07:51.605Z,11.53
2023-04-19T19:10:22.305Z,11.46
2023-04-19T19:12:53.396Z,11.50
2023-04-19T19:15:20.234Z,11.50
2023-04-19T19:17:49.713Z,11.40
2023-04-19T19:20:17.719Z,11.40
2023-04-19T19:22:45.493Z,11.39
2023-04-19T19:25:13.097Z,11.34
2023-04-19T19:27:40.084Z,11.36
2023-04-19T19:30:08.074Z,11.34
2023-04-19T19:32:35.353Z,11.34
2023-04-19T19:35:06.368Z,11.28
2023-04-19T19:37:36.997Z,11.30
2023-04-19T19:40:10.752Z,11.30
2023-04-19T19:42:40.787Z,11.29
2023-04-19T19:45:09.097Z,11.28
2023-04-19T19:47:42.810Z,11.23
2023-04-19T19:51:00.130Z,11.26
2023-04-19T19:53:01.471Z,11.23
2023-04-19T19:55:28.899Z,11.19
2023-04-19T20:02:56.835Z,11.16
2023-04-19T20:05:24.329Z,11.13
2023-04-19T20:10:21.193Z,11.11
2023-04-19T20:12:48.034Z,11.10
2023-04-19T20:15:14.865Z,11.08
2023-04-19T20:17:41.807Z,11.06
2023-04-19T20:20:11.099Z,11.02
2023-04-19T20:22:38.425Z,10.97
2023-04-19T20:25:05.874Z,10.94
2023-04-19T20:27:33.455Z,10.92
2023-04-19T20:30:00.909Z,10.86
2023-04-19T20:32:27.895Z,10.80
2023-04-19T20:34:54.777Z,10.72
2023-04-19T20:37:22.502Z,10.44
2023-04-19T20:39:49.340Z,10.08
2023-04-19T20:42:16.759Z,10.16
2023-04-19T20:44:43.639Z,10.07
2023-04-19T20:47:12.803Z,9.99
2023-04-19T20:49:40.145Z,9.92
2023-04-19T20:52:07.016Z,10.06
2023-04-19T20:54:36.480Z,10.08
2023-04-19T20:57:04.550Z,9.91
2023-04-19T20:59:31.578Z,10.03
2023-04-19T21:01:59.723Z,10.07
2023-04-19T21:04:26.925Z,10.06
2023-04-19T21:06:53.845Z,10.01
2023-04-19T21:09:20.945Z,9.95
2023-04-19T21:11:47.740Z,9.91
2023-04-19T21:14:14.785Z,9.89
2023-04-19T21:16:41.651Z,9.83
2023-04-19T21:19:08.474Z,9.86
2023-04-19T21:21:35.399Z,9.83
2023-04-19T21:24:02.204Z,9.75
2023-04-19T21:26:29.019Z,9.72
2023-04-19T21:28:55.869Z,9.66
2023-04-19T21:31:22.726Z,9.63
2023-04-19T21:33:49.521Z,9.58
2023-04-19T21:36:16.344Z,9.50
2023-04-19T21:38:43.351Z,9.49
2023-04-19T21:41:10.802Z,9.49
2023-04-19T21:43:37.680Z,9.44
2023-04-19T21:46:05.251Z,9.41
2023-04-19T21:48:32.494Z,9.38
2023-04-19T21:51:01.220Z,9.31
2023-04-19T21:53:28.087Z,9.07
2023-04-19T21:55:54.967Z,9.28
2023-04-19T21:58:22.009Z,9.22
2023-04-19T22:00:49.129Z,8.70
2023-04-19T22:03:16.152Z,8.43
2023-04-19T22:05:45.991Z,8.36
2023-04-19T22:08:12.975Z,8.51
2023-04-19T22:10:41.005Z,8.58
2023-04-19T22:13:08.703Z,8.65
2023-04-19T22:15:36.384Z,8.69
2023-04-19T22:18:04.661Z,8.65
2023-04-19T22:20:33.566Z,8.71
2023-04-19T22:23:00.442Z,8.71
2023-04-19T22:25:27.423Z,8.68
2023-04-19T22:27:54.329Z,8.66
2023-04-19T22:30:21.192Z,8.66
2023-04-19T22:32:48.615Z,8.62
2023-04-19T22:35:15.752Z,8.58
2023-04-19T22:37:42.564Z,8.54
2023-04-19T22:40:10.174Z,8.50
2023-04-19T22:42:37.188Z,8.48
2023-04-19T22:45:04.583Z,8.49
2023-04-19T22:47:32.984Z,8.44
2023-04-19T22:49:59.904Z,8.44
2023-04-19T22:52:27.697Z,8.41
2023-04-19T22:54:54.577Z,8.36
2023-04-19T22:57:21.418Z,8.03
2023-04-19T22:59:48.842Z,8.09
2023-04-19T23:02:15.779Z,8.13
2023-04-19T23:04:44.499Z,8.13
2023-04-19T23:07:11.786Z,8.15
2023-04-19T23:09:39.406Z,8.13
2023-04-19T23:12:08.106Z,8.06
2023-04-19T23:14:34.936Z,8.04
2023-04-19T23:17:02.838Z,8.07
2023-04-19T23:19:30.482Z,8.02
2023-04-19T23:21:57.459Z,8.03
2023-04-19T23:24:24.486Z,8.00
2023-04-19T23:26:51.404Z,7.88
2023-04-19T23:29:18.538Z,7.94
2023-04-19T23:31:45.815Z,7.94
2023-04-19T23:34:13.961Z,7.94
2023-04-19T23:36:40.916Z,7.90
2023-04-19T23:39:07.816Z,7.87
2023-04-19T23:41:34.635Z,7.85
2023-04-19T23:44:01.487Z,7.78
2023-04-19T23:46:28.383Z,7.77
2023-04-19T23:48:55.258Z,7.70
2023-04-19T23:51:22.070Z,7.60
2023-04-19T23:53:48.886Z,7.61
2023-04-19T23:56:15.685Z,7.57
2023-04-19T23:58:42.607Z,7.56
